sensor_id;sensor_type;location;lat;lon;timestamp;P1;durP1;ratioP1;P2;durP2;ratioP2
10383;SDS011;5238;43.508;4.980;2023-12-29T00:00:15;13.52;;;11.27;;
10383;SDS011;5238;43.508;4.980;2023-12-29T00:02:42;13.75;;;11.15;;
10383;SDS011;5238;43.508;4.980;2023-12-29T00:05:10;13.00;;;11.23;;
10383;SDS011;5238;43.508;4.980;2023-12-29T00:07:36;14.40;;;11.05;;
10383;SDS011;5238;43.508;4.980;2023-12-29T00:10:04;15.63;;;11.30;;
10383;SDS011;5238;43.508;4.980;2023-12-29T00:12:32;15.43;;;11.35;;
10383;SDS011;5238;43.508;4.980;2023-12-29T00:14:59;12.73;;;10.05;;
10383;SDS011;5238;43.508;4.980;2023-12-29T00:17:27;14.05;;;10.80;;
10383;SDS011;5238;43.508;4.980;2023-12-29T00:19:54;15.05;;;11.10;;
10383;SDS011;5238;43.508;4.980;2023-12-29T00:22:21;13.32;;;10.30;;
10383;SDS011;5238;43.508;4.980;2023-12-29T00:24:49;13.48;;;10.52;;
10383;SDS011;5238;43.508;4.980;2023-12-29T00:27:15;16.23;;;11.50;;
10383;SDS011;5238;43.508;4.980;2023-12-29T00:29:42;14.35;;;10.65;;
10383;SDS011;5238;43.508;4.980;2023-12-29T00:32:09;13.38;;;10.63;;
10383;SDS011;5238;43.508;4.980;2023-12-29T00:34:38;15.05;;;11.05;;
10383;SDS011;5238;43.508;4.980;2023-12-29T00:37:05;18.52;;;12.85;;
10383;SDS011;5238;43.508;4.980;2023-12-29T00:39:33;15.25;;;11.45;;
10383;SDS011;5238;43.508;4.980;2023-12-29T00:42:03;15.35;;;11.27;;
10383;SDS011;5238;43.508;4.980;2023-12-29T00:44:30;16.25;;;11.57;;
10383;SDS011;5238;43.508;4.980;2023-12-29T00:46:57;13.63;;;11.00;;
10383;SDS011;5238;43.508;4.980;2023-12-29T00:49:25;15.98;;;10.95;;
10383;SDS011;5238;43.508;4.980;2023-12-29T00:51:53;15.65;;;11.73;;
10383;SDS011;5238;43.508;4.980;2023-12-29T00:54:20;15.93;;;12.63;;
10383;SDS011;5238;43.508;4.980;2023-12-29T00:56:50;21.13;;;15.27;;
10383;SDS011;5238;43.508;4.980;2023-12-29T00:59:18;21.60;;;14.40;;
10383;SDS011;5238;43.508;4.980;2023-12-29T01:01:46;27.35;;;18.90;;
10383;SDS011;5238;43.508;4.980;2023-12-29T01:04:12;29.60;;;22.15;;
10383;SDS011;5238;43.508;4.980;2023-12-29T01:06:39;16.67;;;12.75;;
10383;SDS011;5238;43.508;4.980;2023-12-29T01:09:08;15.85;;;11.88;;
10383;SDS011;5238;43.508;4.980;2023-12-29T01:11:36;15.30;;;11.48;;
10383;SDS011;5238;43.508;4.980;2023-12-29T01:14:03;15.50;;;11.18;;
10383;SDS011;5238;43.508;4.980;2023-12-29T01:16:30;16.17;;;13.38;;
10383;SDS011;5238;43.508;4.980;2023-12-29T01:18:57;13.77;;;11.85;;
10383;SDS011;5238;43.508;4.980;2023-12-29T01:21:24;14.75;;;11.38;;
10383;SDS011;5238;43.508;4.980;2023-12-29T01:23:52;15.00;;;11.48;;
10383;SDS011;5238;43.508;4.980;2023-12-29T01:26:20;14.05;;;11.65;;
10383;SDS011;5238;43.508;4.980;2023-12-29T01:28:47;13.55;;;11.38;;
10383;SDS011;5238;43.508;4.980;2023-12-29T01:31:14;13.52;;;11.38;;
10383;SDS011;5238;43.508;4.980;2023-12-29T01:33:41;13.98;;;10.63;;
10383;SDS011;5238;43.508;4.980;2023-12-29T01:36:08;11.82;;;10.23;;
10383;SDS011;5238;43.508;4.980;2023-12-29T01:38:35;14.75;;;11.77;;
10383;SDS011;5238;43.508;4.980;2023-12-29T01:41:02;14.55;;;10.27;;
10383;SDS011;5238;43.508;4.980;2023-12-29T01:43:30;11.98;;;10.68;;
10383;SDS011;5238;43.508;4.980;2023-12-29T01:45:57;13.23;;;9.93;;
10383;SDS011;5238;43.508;4.980;2023-12-29T01:48:24;12.32;;;9.38;;
10383;SDS011;5238;43.508;4.980;2023-12-29T01:50:52;11.55;;;9.50;;
10383;SDS011;5238;43.508;4.980;2023-12-29T01:53:22;11.23;;;9.77;;
10383;SDS011;5238;43.508;4.980;2023-12-29T01:55:49;12.52;;;10.27;;
10383;SDS011;5238;43.508;4.980;2023-12-29T01:58:16;14.43;;;9.82;;
10383;SDS011;5238;43.508;4.980;2023-12-29T02:00:44;11.77;;;9.57;;
10383;SDS011;5238;43.508;4.980;2023-12-29T02:03:11;11.38;;;9.18;;
10383;SDS011;5238;43.508;4.980;2023-12-29T02:05:38;10.40;;;8.80;;
10383;SDS011;5238;43.508;4.980;2023-12-29T02:08:07;9.63;;;8.07;;
10383;SDS011;5238;43.508;4.980;2023-12-29T02:10:35;10.48;;;8.18;;
10383;SDS011;5238;43.508;4.980;2023-12-29T02:13:03;10.95;;;7.80;;
10383;SDS011;5238;43.508;4.980;2023-12-29T02:15:30;9.98;;;8.02;;
10383;SDS011;5238;43.508;4.980;2023-12-29T02:18:00;9.50;;;7.53;;
10383;SDS011;5238;43.508;4.980;2023-12-29T02:20:30;9.40;;;7.22;;
10383;SDS011;5238;43.508;4.980;2023-12-29T02:22:57;9.18;;;7.45;;
10383;SDS011;5238;43.508;4.980;2023-12-29T02:25:25;8.05;;;7.05;;
10383;SDS011;5238;43.508;4.980;2023-12-29T02:27:52;8.38;;;6.78;;
10383;SDS011;5238;43.508;4.980;2023-12-29T02:30:26;7.70;;;6.63;;
10383;SDS011;5238;43.508;4.980;2023-12-29T02:32:59;8.25;;;7.25;;
10383;SDS011;5238;43.508;4.980;2023-12-29T02:35:31;8.32;;;7.18;;
10383;SDS011;5238;43.508;4.980;2023-12-29T02:38:01;8.82;;;6.68;;
10383;SDS011;5238;43.508;4.980;2023-12-29T02:40:30;10.13;;;6.93;;
10383;SDS011;5238;43.508;4.980;2023-12-29T02:42:57;8.20;;;6.88;;
10383;SDS011;5238;43.508;4.980;2023-12-29T02:45:24;7.28;;;6.53;;
10383;SDS011;5238;43.508;4.980;2023-12-29T02:47:51;9.18;;;7.03;;
10383;SDS011;5238;43.508;4.980;2023-12-29T02:50:19;7.53;;;6.60;;
10383;SDS011;5238;43.508;4.980;2023-12-29T02:52:46;7.20;;;6.25;;
10383;SDS011;5238;43.508;4.980;2023-12-29T02:55:13;8.13;;;6.93;;
10383;SDS011;5238;43.508;4.980;2023-12-29T02:57:41;10.88;;;6.63;;
10383;SDS011;5238;43.508;4.980;2023-12-29T03:00:08;9.32;;;7.40;;
10383;SDS011;5238;43.508;4.980;2023-12-29T03:02:36;9.13;;;6.40;;
10383;SDS011;5238;43.508;4.980;2023-12-29T03:05:04;8.38;;;6.68;;
10383;SDS011;5238;43.508;4.980;2023-12-29T03:07:32;7.65;;;6.47;;
10383;SDS011;5238;43.508;4.980;2023-12-29T03:09:59;7.25;;;6.40;;
10383;SDS011;5238;43.508;4.980;2023-12-29T03:12:26;7.05;;;6.32;;
10383;SDS011;5238;43.508;4.980;2023-12-29T03:14:55;9.10;;;7.05;;
10383;SDS011;5238;43.508;4.980;2023-12-29T03:17:22;7.88;;;6.85;;
10383;SDS011;5238;43.508;4.980;2023-12-29T03:19:49;8.07;;;6.28;;
10383;SDS011;5238;43.508;4.980;2023-12-29T03:22:16;8.75;;;6.70;;
10383;SDS011;5238;43.508;4.980;2023-12-29T03:24:43;6.75;;;5.90;;
10383;SDS011;5238;43.508;4.980;2023-12-29T03:27:10;7.93;;;6.20;;
10383;SDS011;5238;43.508;4.980;2023-12-29T03:29:37;8.07;;;5.68;;
10383;SDS011;5238;43.508;4.980;2023-12-29T03:32:06;7.72;;;6.13;;
10383;SDS011;5238;43.508;4.980;2023-12-29T03:34:33;9.00;;;6.50;;
10383;SDS011;5238;43.508;4.980;2023-12-29T03:37:00;8.73;;;6.13;;
10383;SDS011;5238;43.508;4.980;2023-12-29T03:39:27;8.25;;;6.45;;
10383;SDS011;5238;43.508;4.980;2023-12-29T03:41:55;8.63;;;6.07;;
10383;SDS011;5238;43.508;4.980;2023-12-29T03:44:21;7.70;;;6.40;;
10383;SDS011;5238;43.508;4.980;2023-12-29T03:46:48;8.13;;;6.43;;
10383;SDS011;5238;43.508;4.980;2023-12-29T03:49:17;10.02;;;6.18;;
10383;SDS011;5238;43.508;4.980;2023-12-29T03:51:45;7.03;;;6.13;;
10383;SDS011;5238;43.508;4.980;2023-12-29T03:54:12;7.32;;;6.50;;
10383;SDS011;5238;43.508;4.980;2023-12-29T03:56:39;10.85;;;7.53;;
10383;SDS011;5238;43.508;4.980;2023-12-29T03:59:06;10.88;;;7.63;;
10383;SDS011;5238;43.508;4.980;2023-12-29T04:01:34;8.52;;;7.15;;
10383;SDS011;5238;43.508;4.980;2023-12-29T04:04:01;10.65;;;6.90;;
10383;SDS011;5238;43.508;4.980;2023-12-29T04:06:29;9.73;;;7.20;;
10383;SDS011;5238;43.508;4.980;2023-12-29T04:08:56;8.55;;;7.05;;
10383;SDS011;5238;43.508;4.980;2023-12-29T04:11:23;9.38;;;7.35;;
10383;SDS011;5238;43.508;4.980;2023-12-29T04:13:50;9.20;;;7.30;;
10383;SDS011;5238;43.508;4.980;2023-12-29T04:16:17;11.90;;;7.30;;
10383;SDS011;5238;43.508;4.980;2023-12-29T04:18:44;10.23;;;6.72;;
10383;SDS011;5238;43.508;4.980;2023-12-29T04:21:13;10.15;;;6.82;;
10383;SDS011;5238;43.508;4.980;2023-12-29T04:23:42;9.32;;;7.00;;
10383;SDS011;5238;43.508;4.980;2023-12-29T04:26:08;10.32;;;7.50;;
10383;SDS011;5238;43.508;4.980;2023-12-29T04:28:36;12.30;;;8.57;;
10383;SDS011;5238;43.508;4.980;2023-12-29T04:31:03;8.50;;;7.20;;
10383;SDS011;5238;43.508;4.980;2023-12-29T04:33:30;10.40;;;7.80;;
10383;SDS011;5238;43.508;4.980;2023-12-29T04:35:57;10.15;;;7.63;;
10383;SDS011;5238;43.508;4.980;2023-12-29T04:38:24;9.77;;;8.00;;
10383;SDS011;5238;43.508;4.980;2023-12-29T04:40:52;9.18;;;6.95;;
10383;SDS011;5238;43.508;4.980;2023-12-29T04:43:19;9.93;;;7.13;;
10383;SDS011;5238;43.508;4.980;2023-12-29T04:45:46;8.10;;;6.88;;
10383;SDS011;5238;43.508;4.980;2023-12-29T04:48:13;10.27;;;7.40;;
10383;SDS011;5238;43.508;4.980;2023-12-29T04:50:40;7.80;;;6.50;;
10383;SDS011;5238;43.508;4.980;2023-12-29T04:53:08;8.60;;;6.43;;
10383;SDS011;5238;43.508;4.980;2023-12-29T04:55:35;8.63;;;6.97;;
10383;SDS011;5238;43.508;4.980;2023-12-29T04:58:04;8.45;;;6.97;;
10383;SDS011;5238;43.508;4.980;2023-12-29T05:00:31;8.43;;;6.40;;
10383;SDS011;5238;43.508;4.980;2023-12-29T05:02:58;9.07;;;6.40;;
10383;SDS011;5238;43.508;4.980;2023-12-29T05:05:25;8.05;;;6.32;;
10383;SDS011;5238;43.508;4.980;2023-12-29T05:07:52;7.70;;;6.50;;
10383;SDS011;5238;43.508;4.980;2023-12-29T05:10:19;8.43;;;6.57;;
10383;SDS011;5238;43.508;4.980;2023-12-29T05:12:46;7.03;;;5.97;;
10383;SDS011;5238;43.508;4.980;2023-12-29T05:15:14;8.55;;;6.25;;
10383;SDS011;5238;43.508;4.980;2023-12-29T05:17:41;8.07;;;6.53;;
10383;SDS011;5238;43.508;4.980;2023-12-29T05:20:09;8.90;;;6.50;;
10383;SDS011;5238;43.508;4.980;2023-12-29T05:22:36;8.40;;;6.53;;
10383;SDS011;5238;43.508;4.980;2023-12-29T05:25:03;7.70;;;6.50;;
10383;SDS011;5238;43.508;4.980;2023-12-29T05:27:30;8.77;;;6.65;;
10383;SDS011;5238;43.508;4.980;2023-12-29T05:29:57;9.23;;;6.68;;
10383;SDS011;5238;43.508;4.980;2023-12-29T05:32:26;8.68;;;6.75;;
10383;SDS011;5238;43.508;4.980;2023-12-29T05:34:53;7.32;;;6.35;;
10383;SDS011;5238;43.508;4.980;2023-12-29T05:37:20;8.45;;;6.28;;
10383;SDS011;5238;43.508;4.980;2023-12-29T05:39:47;7.30;;;6.30;;
10383;SDS011;5238;43.508;4.980;2023-12-29T05:42:14;8.02;;;6.40;;
10383;SDS011;5238;43.508;4.980;2023-12-29T05:44:40;8.60;;;6.55;;
10383;SDS011;5238;43.508;4.980;2023-12-29T05:47:07;9.38;;;6.20;;
10383;SDS011;5238;43.508;4.980;2023-12-29T05:49:37;10.30;;;6.65;;
10383;SDS011;5238;43.508;4.980;2023-12-29T05:52:04;8.30;;;6.18;;
10383;SDS011;5238;43.508;4.980;2023-12-29T05:54:31;8.48;;;7.03;;
10383;SDS011;5238;43.508;4.980;2023-12-29T05:56:59;9.80;;;6.60;;
10383;SDS011;5238;43.508;4.980;2023-12-29T05:59:26;6.68;;;5.70;;
10383;SDS011;5238;43.508;4.980;2023-12-29T06:01:53;7.85;;;6.35;;
10383;SDS011;5238;43.508;4.980;2023-12-29T06:04:21;7.72;;;6.13;;
10383;SDS011;5238;43.508;4.980;2023-12-29T06:09:46;8.02;;;7.25;;
10383;SDS011;5238;43.508;4.980;2023-12-29T06:12:13;8.50;;;6.68;;
10383;SDS011;5238;43.508;4.980;2023-12-29T06:14:40;7.68;;;6.43;;
10383;SDS011;5238;43.508;4.980;2023-12-29T06:17:07;7.53;;;6.50;;
10383;SDS011;5238;43.508;4.980;2023-12-29T06:19:34;9.82;;;6.20;;
10383;SDS011;5238;43.508;4.980;2023-12-29T06:22:01;7.25;;;6.05;;
10383;SDS011;5238;43.508;4.980;2023-12-29T06:24:28;6.57;;;5.88;;
10383;SDS011;5238;43.508;4.980;2023-12-29T06:26:57;8.95;;;6.30;;
10383;SDS011;5238;43.508;4.980;2023-12-29T06:29:24;7.20;;;5.82;;
10383;SDS011;5238;43.508;4.980;2023-12-29T06:31:51;6.95;;;6.28;;
10383;SDS011;5238;43.508;4.980;2023-12-29T06:34:18;9.55;;;6.63;;
10383;SDS011;5238;43.508;4.980;2023-12-29T06:36:45;6.80;;;6.20;;
10383;SDS011;5238;43.508;4.980;2023-12-29T06:39:12;8.73;;;6.07;;
10383;SDS011;5238;43.508;4.980;2023-12-29T06:41:39;6.88;;;5.60;;
10383;SDS011;5238;43.508;4.980;2023-12-29T06:44:08;6.55;;;5.85;;
10383;SDS011;5238;43.508;4.980;2023-12-29T06:46:36;7.57;;;6.15;;
10383;SDS011;5238;43.508;4.980;2023-12-29T06:49:03;9.15;;;6.07;;
10383;SDS011;5238;43.508;4.980;2023-12-29T06:51:29;9.30;;;5.60;;
10383;SDS011;5238;43.508;4.980;2023-12-29T06:53:56;7.85;;;6.93;;
10383;SDS011;5238;43.508;4.980;2023-12-29T06:56:25;8.20;;;6.38;;
10383;SDS011;5238;43.508;4.980;2023-12-29T06:58:52;9.45;;;6.75;;
10383;SDS011;5238;43.508;4.980;2023-12-29T07:01:20;11.65;;;7.70;;
10383;SDS011;5238;43.508;4.980;2023-12-29T07:03:47;9.10;;;6.68;;
10383;SDS011;5238;43.508;4.980;2023-12-29T07:06:14;6.25;;;5.65;;
10383;SDS011;5238;43.508;4.980;2023-12-29T07:08:41;10.07;;;6.65;;
10383;SDS011;5238;43.508;4.980;2023-12-29T07:11:09;8.10;;;6.50;;
10383;SDS011;5238;43.508;4.980;2023-12-29T07:13:37;7.88;;;7.07;;
10383;SDS011;5238;43.508;4.980;2023-12-29T07:16:04;6.60;;;5.68;;
10383;SDS011;5238;43.508;4.980;2023-12-29T07:18:33;7.88;;;5.93;;
10383;SDS011;5238;43.508;4.980;2023-12-29T07:21:00;6.28;;;5.63;;
10383;SDS011;5238;43.508;4.980;2023-12-29T07:23:27;6.05;;;5.45;;
10383;SDS011;5238;43.508;4.980;2023-12-29T07:25:54;6.30;;;5.43;;
10383;SDS011;5238;43.508;4.980;2023-12-29T07:28:21;7.30;;;6.05;;
10383;SDS011;5238;43.508;4.980;2023-12-29T07:30:48;11.50;;;5.63;;
10383;SDS011;5238;43.508;4.980;2023-12-29T07:33:15;8.48;;;5.93;;
10383;SDS011;5238;43.508;4.980;2023-12-29T07:35:44;6.90;;;5.70;;
10383;SDS011;5238;43.508;4.980;2023-12-29T07:38:11;5.85;;;5.05;;
10383;SDS011;5238;43.508;4.980;2023-12-29T07:40:38;5.63;;;5.05;;
10383;SDS011;5238;43.508;4.980;2023-12-29T07:43:05;10.02;;;5.75;;
10383;SDS011;5238;43.508;4.980;2023-12-29T07:45:32;6.75;;;5.43;;
10383;SDS011;5238;43.508;4.980;2023-12-29T07:47:59;7.78;;;5.00;;
10383;SDS011;5238;43.508;4.980;2023-12-29T07:50:28;9.45;;;6.25;;
10383;SDS011;5238;43.508;4.980;2023-12-29T07:52:57;7.85;;;5.25;;
10383;SDS011;5238;43.508;4.980;2023-12-29T07:55:27;7.28;;;5.93;;
10383;SDS011;5238;43.508;4.980;2023-12-29T07:57:54;6.85;;;5.57;;
10383;SDS011;5238;43.508;4.980;2023-12-29T08:00:21;5.78;;;5.05;;
10383;SDS011;5238;43.508;4.980;2023-12-29T08:02:49;7.22;;;5.97;;
10383;SDS011;5238;43.508;4.980;2023-12-29T08:05:16;8.57;;;5.75;;
10383;SDS011;5238;43.508;4.980;2023-12-29T08:07:44;8.93;;;6.63;;
10383;SDS011;5238;43.508;4.980;2023-12-29T08:10:12;7.85;;;6.10;;
10383;SDS011;5238;43.508;4.980;2023-12-29T08:12:39;6.15;;;5.55;;
10383;SDS011;5238;43.508;4.980;2023-12-29T08:15:06;7.85;;;6.55;;
10383;SDS011;5238;43.508;4.980;2023-12-29T08:17:34;7.43;;;6.40;;
10383;SDS011;5238;43.508;4.980;2023-12-29T08:20:01;7.80;;;6.15;;
10383;SDS011;5238;43.508;4.980;2023-12-29T08:22:29;8.55;;;5.50;;
10383;SDS011;5238;43.508;4.980;2023-12-29T08:24:57;9.48;;;6.15;;
10383;SDS011;5238;43.508;4.980;2023-12-29T08:27:25;5.25;;;4.75;;
10383;SDS011;5238;43.508;4.980;2023-12-29T08:29:52;6.82;;;5.63;;
10383;SDS011;5238;43.508;4.980;2023-12-29T08:32:20;5.93;;;4.75;;
10383;SDS011;5238;43.508;4.980;2023-12-29T08:34:47;6.90;;;5.70;;
10383;SDS011;5238;43.508;4.980;2023-12-29T08:37:14;6.22;;;5.25;;
10383;SDS011;5238;43.508;4.980;2023-12-29T08:39:45;7.00;;;5.35;;
10383;SDS011;5238;43.508;4.980;2023-12-29T08:42:12;8.25;;;6.20;;
10383;SDS011;5238;43.508;4.980;2023-12-29T08:44:41;9.10;;;7.10;;
10383;SDS011;5238;43.508;4.980;2023-12-29T08:47:08;8.63;;;6.03;;
10383;SDS011;5238;43.508;4.980;2023-12-29T08:49:35;9.07;;;6.78;;
10383;SDS011;5238;43.508;4.980;2023-12-29T08:52:03;6.57;;;5.95;;
10383;SDS011;5238;43.508;4.980;2023-12-29T08:54:30;6.88;;;5.38;;
10383;SDS011;5238;43.508;4.980;2023-12-29T08:56:57;9.40;;;6.60;;
10383;SDS011;5238;43.508;4.980;2023-12-29T08:59:24;9.63;;;6.68;;
10383;SDS011;5238;43.508;4.980;2023-12-29T09:01:52;10.00;;;7.18;;
10383;SDS011;5238;43.508;4.980;2023-12-29T09:04:19;8.90;;;8.02;;
10383;SDS011;5238;43.508;4.980;2023-12-29T09:06:46;8.90;;;8.00;;
10383;SDS011;5238;43.508;4.980;2023-12-29T09:09:13;9.73;;;8.82;;
10383;SDS011;5238;43.508;4.980;2023-12-29T09:11:41;11.70;;;9.00;;
10383;SDS011;5238;43.508;4.980;2023-12-29T09:14:08;13.38;;;9.55;;
10383;SDS011;5238;43.508;4.980;2023-12-29T09:16:35;13.15;;;10.02;;
10383;SDS011;5238;43.508;4.980;2023-12-29T09:19:04;15.07;;;11.77;;
10383;SDS011;5238;43.508;4.980;2023-12-29T09:21:31;15.30;;;11.40;;
10383;SDS011;5238;43.508;4.980;2023-12-29T09:23:58;13.38;;;11.60;;
10383;SDS011;5238;43.508;4.980;2023-12-29T09:26:25;13.32;;;11.55;;
10383;SDS011;5238;43.508;4.980;2023-12-29T09:28:52;12.32;;;11.05;;
10383;SDS011;5238;43.508;4.980;2023-12-29T09:31:19;16.50;;;13.77;;
10383;SDS011;5238;43.508;4.980;2023-12-29T09:33:46;18.33;;;13.43;;
10383;SDS011;5238;43.508;4.980;2023-12-29T09:36:14;17.23;;;13.90;;
10383;SDS011;5238;43.508;4.980;2023-12-29T09:38:41;17.42;;;12.35;;
10383;SDS011;5238;43.508;4.980;2023-12-29T09:41:11;21.63;;;14.48;;
10383;SDS011;5238;43.508;4.980;2023-12-29T09:43:41;22.25;;;15.30;;
10383;SDS011;5238;43.508;4.980;2023-12-29T09:46:09;16.45;;;12.82;;
10383;SDS011;5238;43.508;4.980;2023-12-29T09:48:38;17.35;;;13.13;;
10383;SDS011;5238;43.508;4.980;2023-12-29T09:51:06;14.65;;;10.20;;
10383;SDS011;5238;43.508;4.980;2023-12-29T09:53:36;12.45;;;9.05;;
10383;SDS011;5238;43.508;4.980;2023-12-29T09:56:04;12.70;;;10.40;;
10383;SDS011;5238;43.508;4.980;2023-12-29T09:58:34;11.38;;;9.50;;
10383;SDS011;5238;43.508;4.980;2023-12-29T10:01:03;12.57;;;10.45;;
10383;SDS011;5238;43.508;4.980;2023-12-29T10:03:31;20.73;;;14.55;;
10383;SDS011;5238;43.508;4.980;2023-12-29T10:05:59;17.80;;;13.15;;
10383;SDS011;5238;43.508;4.980;2023-12-29T10:08:28;16.70;;;13.45;;
10383;SDS011;5238;43.508;4.980;2023-12-29T10:11:00;18.33;;;13.57;;
10383;SDS011;5238;43.508;4.980;2023-12-29T10:13:30;16.52;;;13.13;;
10383;SDS011;5238;43.508;4.980;2023-12-29T10:16:02;14.15;;;10.80;;
10383;SDS011;5238;43.508;4.980;2023-12-29T10:18:37;13.38;;;11.38;;
10383;SDS011;5238;43.508;4.980;2023-12-29T10:21:12;14.20;;;10.57;;
10383;SDS011;5238;43.508;4.980;2023-12-29T10:23:48;11.63;;;9.73;;
10383;SDS011;5238;43.508;4.980;2023-12-29T10:26:22;14.73;;;10.13;;
10383;SDS011;5238;43.508;4.980;2023-12-29T10:28:50;11.50;;;9.35;;
10383;SDS011;5238;43.508;4.980;2023-12-29T10:31:18;11.18;;;8.63;;
10383;SDS011;5238;43.508;4.980;2023-12-29T10:33:45;10.88;;;8.18;;
10383;SDS011;5238;43.508;4.980;2023-12-29T10:36:15;10.45;;;8.77;;
10383;SDS011;5238;43.508;4.980;2023-12-29T10:38:42;8.70;;;7.25;;
10383;SDS011;5238;43.508;4.980;2023-12-29T10:41:10;9.05;;;6.97;;
10383;SDS011;5238;43.508;4.980;2023-12-29T10:43:39;11.02;;;6.95;;
10383;SDS011;5238;43.508;4.980;2023-12-29T10:46:07;8.20;;;7.22;;
10383;SDS011;5238;43.508;4.980;2023-12-29T10:48:35;9.40;;;6.45;;
10383;SDS011;5238;43.508;4.980;2023-12-29T10:51:02;9.05;;;6.15;;
10383;SDS011;5238;43.508;4.980;2023-12-29T10:53:30;7.97;;;5.97;;
10383;SDS011;5238;43.508;4.980;2023-12-29T10:55:57;6.65;;;5.70;;
10383;SDS011;5238;43.508;4.980;2023-12-29T10:58:24;9.35;;;5.72;;
10383;SDS011;5238;43.508;4.980;2023-12-29T11:00:55;7.70;;;5.90;;
10383;SDS011;5238;43.508;4.980;2023-12-29T11:03:23;9.15;;;5.88;;
10383;SDS011;5238;43.508;4.980;2023-12-29T11:05:50;7.72;;;5.50;;
10383;SDS011;5238;43.508;4.980;2023-12-29T11:08:25;5.75;;;5.15;;
10383;SDS011;5238;43.508;4.980;2023-12-29T11:10:52;8.15;;;6.10;;
10383;SDS011;5238;43.508;4.980;2023-12-29T11:13:21;9.52;;;5.43;;
10383;SDS011;5238;43.508;4.980;2023-12-29T11:15:48;7.03;;;5.30;;
10383;SDS011;5238;43.508;4.980;2023-12-29T11:18:18;7.15;;;5.65;;
10383;SDS011;5238;43.508;4.980;2023-12-29T11:20:45;6.38;;;5.30;;
10383;SDS011;5238;43.508;4.980;2023-12-29T11:23:13;7.53;;;5.72;;
10383;SDS011;5238;43.508;4.980;2023-12-29T11:25:40;6.25;;;4.70;;
10383;SDS011;5238;43.508;4.980;2023-12-29T11:28:11;7.70;;;5.15;;
10383;SDS011;5238;43.508;4.980;2023-12-29T11:30:38;6.03;;;5.43;;
10383;SDS011;5238;43.508;4.980;2023-12-29T11:33:07;9.40;;;6.22;;
10383;SDS011;5238;43.508;4.980;2023-12-29T11:35:42;8.10;;;6.72;;
10383;SDS011;5238;43.508;4.980;2023-12-29T11:38:26;9.52;;;7.55;;
10383;SDS011;5238;43.508;4.980;2023-12-29T11:41:02;12.43;;;9.13;;
10383;SDS011;5238;43.508;4.980;2023-12-29T11:43:34;11.18;;;9.23;;
10383;SDS011;5238;43.508;4.980;2023-12-29T11:46:02;15.95;;;11.75;;
10383;SDS011;5238;43.508;4.980;2023-12-29T11:51:29;16.75;;;12.95;;
10383;SDS011;5238;43.508;4.980;2023-12-29T11:53:57;17.23;;;11.98;;
10383;SDS011;5238;43.508;4.980;2023-12-29T11:56:30;12.02;;;9.95;;
10383;SDS011;5238;43.508;4.980;2023-12-29T11:59:11;13.80;;;9.45;;
10383;SDS011;5238;43.508;4.980;2023-12-29T12:01:43;12.50;;;9.15;;
10383;SDS011;5238;43.508;4.980;2023-12-29T12:07:06;10.73;;;6.82;;
10383;SDS011;5238;43.508;4.980;2023-12-29T12:09:34;7.43;;;6.63;;
10383;SDS011;5238;43.508;4.980;2023-12-29T12:12:02;7.35;;;6.07;;
10383;SDS011;5238;43.508;4.980;2023-12-29T12:14:46;6.53;;;5.68;;
10383;SDS011;5238;43.508;4.980;2023-12-29T12:20:07;6.47;;;5.65;;
10383;SDS011;5238;43.508;4.980;2023-12-29T12:22:36;6.32;;;5.55;;
10383;SDS011;5238;43.508;4.980;2023-12-29T12:25:03;8.13;;;5.60;;
10383;SDS011;5238;43.508;4.980;2023-12-29T12:27:31;7.45;;;5.75;;
10383;SDS011;5238;43.508;4.980;2023-12-29T12:29:58;6.32;;;5.50;;
10383;SDS011;5238;43.508;4.980;2023-12-29T12:32:26;6.38;;;5.78;;
10383;SDS011;5238;43.508;4.980;2023-12-29T12:34:53;6.40;;;5.45;;
10383;SDS011;5238;43.508;4.980;2023-12-29T12:37:21;5.40;;;4.90;;
10383;SDS011;5238;43.508;4.980;2023-12-29T12:39:50;6.45;;;5.43;;
10383;SDS011;5238;43.508;4.980;2023-12-29T12:42:18;6.65;;;5.13;;
10383;SDS011;5238;43.508;4.980;2023-12-29T12:44:47;5.88;;;5.03;;
10383;SDS011;5238;43.508;4.980;2023-12-29T12:47:23;6.50;;;5.57;;
10383;SDS011;5238;43.508;4.980;2023-12-29T12:49:52;4.95;;;4.30;;
10383;SDS011;5238;43.508;4.980;2023-12-29T12:52:19;5.93;;;4.43;;
10383;SDS011;5238;43.508;4.980;2023-12-29T12:54:47;5.55;;;4.70;;
10383;SDS011;5238;43.508;4.980;2023-12-29T12:57:19;4.97;;;4.45;;
10383;SDS011;5238;43.508;4.980;2023-12-29T12:59:48;6.00;;;4.90;;
10383;SDS011;5238;43.508;4.980;2023-12-29T13:02:16;5.00;;;4.20;;
10383;SDS011;5238;43.508;4.980;2023-12-29T13:04:45;4.43;;;3.90;;
10383;SDS011;5238;43.508;4.980;2023-12-29T13:07:14;5.13;;;4.35;;
10383;SDS011;5238;43.508;4.980;2023-12-29T13:09:42;6.72;;;4.72;;
10383;SDS011;5238;43.508;4.980;2023-12-29T13:12:09;4.15;;;3.72;;
10383;SDS011;5238;43.508;4.980;2023-12-29T13:14:38;4.82;;;4.25;;
10383;SDS011;5238;43.508;4.980;2023-12-29T13:17:06;6.20;;;4.50;;
10383;SDS011;5238;43.508;4.980;2023-12-29T13:19:34;4.97;;;3.88;;
10383;SDS011;5238;43.508;4.980;2023-12-29T13:22:01;5.00;;;4.20;;
10383;SDS011;5238;43.508;4.980;2023-12-29T13:24:29;4.82;;;4.40;;
10383;SDS011;5238;43.508;4.980;2023-12-29T13:26:57;6.53;;;4.47;;
10383;SDS011;5238;43.508;4.980;2023-12-29T13:29:30;4.32;;;3.92;;
10383;SDS011;5238;43.508;4.980;2023-12-29T13:32:00;5.72;;;4.57;;
10383;SDS011;5238;43.508;4.980;2023-12-29T13:34:33;4.57;;;4.03;;
10383;SDS011;5238;43.508;4.980;2023-12-29T13:37:05;5.05;;;4.53;;
10383;SDS011;5238;43.508;4.980;2023-12-29T13:39:41;5.45;;;4.88;;
10383;SDS011;5238;43.508;4.980;2023-12-29T13:42:12;7.15;;;3.88;;
10383;SDS011;5238;43.508;4.980;2023-12-29T13:44:42;5.05;;;4.00;;
10383;SDS011;5238;43.508;4.980;2023-12-29T13:47:12;7.53;;;4.22;;
10383;SDS011;5238;43.508;4.980;2023-12-29T13:49:40;4.88;;;4.47;;
10383;SDS011;5238;43.508;4.980;2023-12-29T13:52:08;5.03;;;3.78;;
10383;SDS011;5238;43.508;4.980;2023-12-29T13:54:44;5.80;;;4.50;;
10383;SDS011;5238;43.508;4.980;2023-12-29T13:57:12;5.55;;;3.90;;
10383;SDS011;5238;43.508;4.980;2023-12-29T13:59:39;6.72;;;4.22;;
10383;SDS011;5238;43.508;4.980;2023-12-29T14:02:20;5.00;;;4.50;;
10383;SDS011;5238;43.508;4.980;2023-12-29T14:05:06;8.25;;;4.90;;
10383;SDS011;5238;43.508;4.980;2023-12-29T14:07:38;8.15;;;4.53;;
10383;SDS011;5238;43.508;4.980;2023-12-29T14:10:12;5.47;;;4.90;;
10383;SDS011;5238;43.508;4.980;2023-12-29T14:12:39;5.35;;;4.85;;
10383;SDS011;5238;43.508;4.980;2023-12-29T14:15:06;5.60;;;4.70;;
10383;SDS011;5238;43.508;4.980;2023-12-29T14:17:36;5.28;;;4.63;;
10383;SDS011;5238;43.508;4.980;2023-12-29T14:20:05;6.63;;;4.20;;
10383;SDS011;5238;43.508;4.980;2023-12-29T14:22:33;4.15;;;3.75;;
10383;SDS011;5238;43.508;4.980;2023-12-29T14:25:00;5.50;;;4.88;;
10383;SDS011;5238;43.508;4.980;2023-12-29T14:27:29;5.43;;;4.20;;
10383;SDS011;5238;43.508;4.980;2023-12-29T14:29:56;4.95;;;4.25;;
10383;SDS011;5238;43.508;4.980;2023-12-29T14:32:24;6.88;;;4.88;;
10383;SDS011;5238;43.508;4.980;2023-12-29T14:34:55;8.43;;;5.45;;
10383;SDS011;5238;43.508;4.980;2023-12-29T14:37:22;6.68;;;5.93;;
10383;SDS011;5238;43.508;4.980;2023-12-29T14:39:50;8.75;;;5.57;;
10383;SDS011;5238;43.508;4.980;2023-12-29T14:42:17;6.72;;;5.22;;
10383;SDS011;5238;43.508;4.980;2023-12-29T14:44:47;5.68;;;4.88;;
10383;SDS011;5238;43.508;4.980;2023-12-29T14:47:14;4.57;;;4.00;;
10383;SDS011;5238;43.508;4.980;2023-12-29T14:49:42;4.78;;;4.30;;
10383;SDS011;5238;43.508;4.980;2023-12-29T14:52:11;5.50;;;5.03;;
10383;SDS011;5238;43.508;4.980;2023-12-29T14:54:38;8.25;;;5.20;;
10383;SDS011;5238;43.508;4.980;2023-12-29T14:57:06;5.95;;;5.25;;
10383;SDS011;5238;43.508;4.980;2023-12-29T14:59:33;6.85;;;6.15;;
10383;SDS011;5238;43.508;4.980;2023-12-29T15:02:01;12.98;;;8.35;;
10383;SDS011;5238;43.508;4.980;2023-12-29T15:04:32;8.43;;;7.38;;
10383;SDS011;5238;43.508;4.980;2023-12-29T15:06:59;10.52;;;7.70;;
10383;SDS011;5238;43.508;4.980;2023-12-29T15:09:28;20.65;;;15.32;;